Time;durP1;ratioP1;P1;durP2;ratioP2;P2;SDS_P1;SDS_P2;PMS_P1;PMS_P2;Temp;Humidity;BMP_temperature;BMP_pressure;BME280_temperature;BME280_humidity;BME280_pressure;Samples;Min_cycle;Max_cycle;Signal;HPM_P1;HPM_P2
2021/06/04 00:00:20;;;;;;;9.60;8.70;;;18.90;99.90;;;;;;5002651;28;20469;-76
2021/06/04 00:02:47;;;;;;;9.07;8.23;;;18.90;99.90;;;;;;5029782;28;20466;-76
2021/06/04 00:05:16;;;;;;;9.03;7.77;;;18.80;99.90;;;;;;5011494;28;20551;-73
2021/06/04 00:07:43;;;;;;;8.80;7.90;;;18.80;99.90;;;;;;5010780;28;20542;-74
2021/06/04 00:10:18;;;;;;;8.77;7.80;;;18.80;99.90;;;;;;5010332;28;20467;-74
2021/06/04 00:12:49;;;;;;;9.23;8.07;;;18.70;99.90;;;;;;5012913;28;20430;-75
2021/06/04 00:15:20;;;;;;;9.13;8.33;;;18.70;99.90;;;;;;5004167;28;20522;-75
2021/06/04 00:17:47;;;;;;;9.90;8.87;;;18.70;99.90;;;;;;5014800;28;20451;-76
2021/06/04 00:20:20;;;;;;;11.03;8.03;;;18.70;99.90;;;;;;5012166;28;20471;-74
2021/06/04 00:22:47;;;;;;;8.47;7.70;;;18.70;99.90;;;;;;4994264;28;20898;-76
2021/06/04 00:25:14;;;;;;;9.00;8.10;;;18.70;99.90;;;;;;4994904;28;20472;-74
2021/06/04 00:27:42;;;;;;;9.13;8.17;;;18.60;99.90;;;;;;5004858;28;20459;-75
2021/06/04 00:30:11;;;;;;;8.60;7.80;;;18.60;99.90;;;;;;4995239;28;20483;-74
2021/06/04 00:32:38;;;;;;;8.80;8.10;;;18.50;99.90;;;;;;5004690;28;20792;-75
2021/06/04 00:35:07;;;;;;;8.33;7.63;;;18.50;99.90;;;;;;5008998;28;20474;-76
2021/06/04 00:37:37;;;;;;;10.50;8.00;;;18.50;99.90;;;;;;5014229;28;20516;-75
2021/06/04 00:40:15;;;;;;;7.90;7.10;;;18.50;99.90;;;;;;5001384;28;20471;-75
2021/06/04 00:42:44;;;;;;;10.87;7.80;;;18.40;99.90;;;;;;4995984;28;20426;-75
2021/06/04 00:45:16;;;;;;;10.57;7.80;;;18.40;99.90;;;;;;4995461;28;20474;-74
2021/06/04 00:47:43;;;;;;;9.43;8.60;;;18.40;99.90;;;;;;4993783;28;20454;-75
2021/06/04 00:50:15;;;;;;;11.73;8.87;;;18.30;99.90;;;;;;5007830;28;20533;-76
2021/06/04 00:52:42;;;;;;;9.00;8.20;;;18.30;99.90;;;;;;4993798;28;20431;-74
2021/06/04 00:55:16;;;;;;;8.70;7.90;;;18.30;99.90;;;;;;5006279;28;20469;-75
2021/06/04 00:57:44;;;;;;;9.17;8.37;;;18.30;99.90;;;;;;5009561;28;20517;-76
2021/06/04 01:00:33;;;;;;;9.20;8.37;;;18.30;99.90;;;;;;4995103;28;20463;-76
2021/06/04 01:03:01;;;;;;;10.30;8.80;;;18.30;99.90;;;;;;4997344;28;20443;-76
2021/06/04 01:05:32;;;;;;;11.50;9.20;;;18.30;99.90;;;;;;5008601;28;20477;-76
2021/06/04 01:08:15;;;;;;;11.17;10.07;;;18.30;99.90;;;;;;5011773;28;20497;-77
2021/06/04 01:11:23;;;;;;;9.57;8.63;;;18.30;99.90;;;;;;4995920;28;20470;-73
2021/06/04 01:14:28;;;;;;;10.00;8.90;;;18.30;99.90;;;;;;5018523;28;20442;-76
2021/06/04 01:17:25;;;;;;;11.57;9.60;;;18.30;99.90;;;;;;4992725;28;20449;-75
2021/06/04 01:20:00;;;;;;;10.40;9.47;;;18.20;99.90;;;;;;5010357;28;20465;-76
2021/06/04 01:22:55;;;;;;;10.30;9.30;;;18.20;99.90;;;;;;4994496;28;20452;-76
2021/06/04 01:25:30;;;;;;;10.23;9.43;;;18.20;99.90;;;;;;4993327;28;20473;-76
2021/06/04 01:27:59;;;;;;;10.00;9.17;;;18.20;99.90;;;;;;5003713;28;20454;-75
2021/06/04 01:30:37;;;;;;;10.27;9.23;;;18.20;99.90;;;;;;4999905;28;20501;-74
2021/06/04 01:33:12;;;;;;;11.00;10.00;;;18.10;99.90;;;;;;4976996;28;20466;-75
2021/06/04 01:35:49;;;;;;;12.50;11.20;;;18.10;99.90;;;;;;5002100;28;21035;-75
2021/06/04 01:38:20;;;;;;;10.63;9.70;;;18.10;99.90;;;;;;5008715;28;20449;-75
2021/06/04 01:40:53;;;;;;;12.47;11.10;;;18.00;99.90;;;;;;5008376;28;20545;-76
2021/06/04 01:43:34;;;;;;;11.83;10.57;;;18.00;99.90;;;;;;5012338;28;20425;-77
2021/06/04 01:46:12;;;;;;;13.67;11.00;;;17.90;99.90;;;;;;5009850;28;20875;-75
2021/06/04 01:48:44;;;;;;;11.57;9.73;;;17.90;99.90;;;;;;5000644;28;20448;-75
2021/06/04 01:51:25;;;;;;;12.83;11.53;;;17.90;99.90;;;;;;5008605;28;20536;-76
2021/06/04 01:54:10;;;;;;;17.77;12.60;;;17.80;99.90;;;;;;4991898;28;20834;-77
2021/06/04 01:56:46;;;;;;;13.37;11.97;;;17.80;99.90;;;;;;4996621;28;20430;-75
2021/06/04 01:59:23;;;;;;;13.13;11.50;;;17.80;99.90;;;;;;4998494;28;20557;-76
2021/06/04 02:01:59;;;;;;;12.87;11.63;;;17.90;99.90;;;;;;4999634;28;20447;-74
2021/06/04 02:04:38;;;;;;;15.70;13.10;;;17.90;99.90;;;;;;5011033;28;20465;-76
2021/06/04 02:07:08;;;;;;;14.17;12.77;;;17.90;99.90;;;;;;5003034;28;20477;-76
2021/06/04 02:09:36;;;;;;;16.87;12.50;;;18.00;99.90;;;;;;5007242;28;20462;-76
2021/06/04 02:12:16;;;;;;;17.33;13.40;;;18.00;99.90;;;;;;5012119;28;20438;-75
2021/06/04 02:14:53;;;;;;;15.03;12.33;;;18.00;99.90;;;;;;5003165;28;20466;-76
2021/06/04 02:17:46;;;;;;;14.40;12.33;;;18.00;99.90;;;;;;5003022;28;20464;-77
2021/06/04 02:20:24;;;;;;;14.53;12.80;;;17.90;99.90;;;;;;4996264;28;20472;-76
2021/06/04 02:23:12;;;;;;;14.70;13.10;;;17.90;99.90;;;;;;5011027;28;20425;-74
2021/06/04 02:25:46;;;;;;;22.97;12.17;;;17.80;99.90;;;;;;4991574;28;20473;-74
2021/06/04 02:28:42;;;;;;;11.77;10.40;;;17.80;99.90;;;;;;4993927;28;20459;-74
2021/06/04 02:31:22;;;;;;;18.80;13.60;;;17.70;99.90;;;;;;5023062;28;20507;-76
2021/06/04 02:34:19;;;;;;;14.53;13.10;;;17.60;99.90;;;;;;5004572;28;20920;-75
2021/06/04 02:36:56;;;;;;;13.77;12.33;;;17.60;99.90;;;;;;5022365;28;20543;-76
2021/06/04 02:39:30;;;;;;;13.83;12.43;;;17.60;99.90;;;;;;4998751;28;21005;-75
2021/06/04 02:42:18;;;;;;;15.00;13.50;;;17.50;99.90;;;;;;4993926;28;20433;-75
2021/06/04 02:44:49;;;;;;;14.73;12.23;;;17.50;99.90;;;;;;5021446;28;20463;-76
2021/06/04 02:47:21;;;;;;;14.87;13.53;;;17.50;99.90;;;;;;5027241;28;20475;-76
2021/06/04 02:49:49;;;;;;;13.03;11.93;;;17.50;99.90;;;;;;5015677;28;20461;-76
2021/06/04 02:52:30;;;;;;;14.00;11.37;;;17.50;99.90;;;;;;5012759;28;20441;-76
2021/06/04 02:55:02;;;;;;;13.27;11.83;;;17.50;99.90;;;;;;4998833;28;20460;-76
2021/06/04 02:57:38;;;;;;;14.53;13.00;;;17.40;99.90;;;;;;4991938;28;20453;-73
2021/06/04 03:00:14;;;;;;;14.80;13.40;;;17.40;99.90;;;;;;4996641;28;20463;-76
2021/06/04 03:02:42;;;;;;;17.80;14.60;;;17.40;99.90;;;;;;4997289;28;20524;-75
2021/06/04 03:05:16;;;;;;;13.40;12.20;;;17.40;99.90;;;;;;5009024;28;20846;-77
2021/06/04 03:07:43;;;;;;;15.00;13.37;;;17.40;99.90;;;;;;4991641;28;20548;-76
2021/06/04 03:10:24;;;;;;;18.33;12.60;;;17.40;99.90;;;;;;5008830;28;20461;-75
2021/06/04 03:12:53;;;;;;;14.43;13.03;;;17.40;99.90;;;;;;5013354;28;20490;-74
2021/06/04 03:15:48;;;;;;;15.40;13.80;;;17.40;99.90;;;;;;5010728;28;20485;-75
2021/06/04 03:18:37;;;;;;;15.70;14.23;;;17.40;99.90;;;;;;4993334;28;20467;-74
2021/06/04 03:21:19;;;;;;;14.57;13.20;;;17.30;99.90;;;;;;4978968;28;20896;-74
2021/06/04 03:23:47;;;;;;;16.63;15.13;;;17.30;99.90;;;;;;4996247;28;20469;-76
2021/06/04 03:26:24;;;;;;;16.90;15.00;;;17.30;99.90;;;;;;4996485;28;20462;-75
2021/06/04 03:28:56;;;;;;;15.37;14.00;;;17.30;99.90;;;;;;4988025;28;20456;-75
2021/06/04 03:31:28;;;;;;;16.40;14.20;;;17.30;99.90;;;;;;4994720;28;20461;-76
2021/06/04 03:34:00;;;;;;;14.83;13.33;;;17.20;99.90;;;;;;5022736;28;20959;-75
2021/06/04 03:36:33;;;;;;;17.13;15.37;;;17.20;99.90;;;;;;5003636;28;20453;-75
2021/06/04 03:39:00;;;;;;;20.20;14.50;;;17.20;99.90;;;;;;5007289;28;20477;-76
2021/06/04 03:41:32;;;;;;;17.07;15.27;;;17.20;99.90;;;;;;4997662;28;20502;-76
2021/06/04 03:44:04;;;;;;;17.67;16.00;;;17.20;99.90;;;;;;4998210;28;20459;-75
2021/06/04 03:46:32;;;;;;;16.07;14.47;;;17.20;99.90;;;;;;4997100;28;20527;-76
2021/06/04 03:49:00;;;;;;;17.00;15.40;;;17.20;99.90;;;;;;5010849;28;20496;-76
2021/06/04 03:51:33;;;;;;;17.33;15.50;;;17.20;99.90;;;;;;5004102;28;20449;-76
2021/06/04 03:54:04;;;;;;;19.10;17.20;;;17.20;99.90;;;;;;4996200;28;20456;-77
2021/06/04 03:56:31;;;;;;;19.13;16.60;;;17.30;99.90;;;;;;4998790;28;20441;-75
2021/06/04 03:58:59;;;;;;;18.73;16.43;;;17.30;99.90;;;;;;5006860;28;20489;-76
2021/06/04 04:01:36;;;;;;;17.87;16.03;;;17.30;99.90;;;;;;5015061;28;20432;-76
2021/06/04 04:04:07;;;;;;;19.60;17.60;;;17.40;99.90;;;;;;5014134;28;20459;-76
2021/06/04 04:06:37;;;;;;;18.20;16.30;;;17.40;99.90;;;;;;4985380;28;20469;-76
2021/06/04 04:09:06;;;;;;;19.07;17.00;;;17.40;99.90;;;;;;5002165;28;20461;-73
2021/06/04 04:11:34;;;;;;;22.00;15.90;;;17.40;99.90;;;;;;5015136;28;20483;-76
2021/06/04 04:14:02;;;;;;;19.83;17.80;;;17.40;99.90;;;;;;5004505;28;20458;-76
2021/06/04 04:16:30;;;;;;;18.73;17.03;;;17.40;99.90;;;;;;4996059;28;20806;-74
2021/06/04 04:18:59;;;;;;;18.60;16.80;;;17.40;99.90;;;;;;4995305;28;21025;-76
2021/06/04 04:21:26;;;;;;;19.10;17.20;;;17.40;99.90;;;;;;5004935;28;21032;-76
2021/06/04 04:24:01;;;;;;;18.17;16.40;;;17.40;99.90;;;;;;5012836;28;20461;-74
2021/06/04 04:26:33;;;;;;;18.97;17.07;;;17.40;99.90;;;;;;5013004;28;20868;-76
2021/06/04 04:29:00;;;;;;;21.10;18.67;;;17.40;99.90;;;;;;5012944;28;20531;-75
2021/06/04 04:31:33;;;;;;;18.93;17.17;;;17.50;99.90;;;;;;5013041;28;20435;-73
2021/06/04 04:34:02;;;;;;;19.83;17.73;;;17.50;99.90;;;;;;5013004;28;20455;-76
2021/06/04 04:36:38;;;;;;;18.93;17.03;;;17.50;99.90;;;;;;5011416;28;20861;-74
2021/06/04 04:39:10;;;;;;;21.70;19.60;;;17.50;99.90;;;;;;4999536;28;20456;-74
2021/06/04 04:41:38;;;;;;;18.97;17.33;;;17.50;99.90;;;;;;5011998;28;20480;-75
2021/06/04 04:44:08;;;;;;;19.67;17.67;;;17.50;99.90;;;;;;5002738;28;20466;-75
2021/06/04 04:46:35;;;;;;;19.37;17.53;;;17.50;99.90;;;;;;5013494;28;20481;-75
2021/06/04 04:49:04;;;;;;;18.73;16.97;;;17.40;99.90;;;;;;5006159;28;20453;-73
2021/06/04 04:51:33;;;;;;;18.93;17.10;;;17.50;99.90;;;;;;5005310;28;20480;-76
2021/06/04 04:54:03;;;;;;;20.17;18.37;;;17.50;99.90;;;;;;5012463;28;20469;-73
2021/06/04 04:56:34;;;;;;;17.27;15.67;;;17.50;99.90;;;;;;5013755;28;20841;-77
2021/06/04 04:59:02;;;;;;;20.37;17.70;;;17.50;99.90;;;;;;5007524;28;20481;-75
2021/06/04 05:01:30;;;;;;;16.63;15.00;;;17.50;99.90;;;;;;4994045;28;20476;-76
2021/06/04 05:04:00;;;;;;;18.87;16.40;;;17.50;99.90;;;;;;4993089;28;20946;-74
2021/06/04 05:06:27;;;;;;;18.50;16.77;;;17.60;99.90;;;;;;4996143;28;20473;-75
2021/06/04 05:08:54;;;;;;;21.13;18.90;;;17.60;99.90;;;;;;4997849;28;20503;-76
2021/06/04 05:11:23;;;;;;;20.57;18.37;;;17.80;99.90;;;;;;4995569;28;20490;-76
2021/06/04 05:13:50;;;;;;;26.33;21.10;;;17.90;99.90;;;;;;4994274;28;20442;-74
2021/06/04 05:16:19;;;;;;;22.93;20.80;;;18.10;99.90;;;;;;4994982;28;20434;-75
2021/06/04 05:18:47;;;;;;;22.53;20.33;;;18.20;99.90;;;;;;4994618;28;20502;-75
2021/06/04 05:21:15;;;;;;;22.67;20.47;;;18.20;99.90;;;;;;5002886;28;20440;-75
2021/06/04 05:23:42;;;;;;;23.80;21.50;;;18.30;99.90;;;;;;4994313;28;20416;-76
2021/06/04 05:26:10;;;;;;;24.77;22.27;;;18.40;99.90;;;;;;4999893;28;20478;-76
2021/06/04 05:28:42;;;;;;;24.53;22.30;;;18.50;99.90;;;;;;5011495;28;20552;-75
2021/06/04 05:31:12;;;;;;;25.10;21.90;;;18.60;99.90;;;;;;5011364;28;20536;-75
2021/06/04 05:33:43;;;;;;;23.87;21.57;;;18.60;99.90;;;;;;5013053;28;20470;-76
2021/06/04 05:36:16;;;;;;;22.70;20.27;;;18.70;99.90;;;;;;5004416;28;20513;-75
2021/06/04 05:38:46;;;;;;;26.30;23.73;;;18.80;99.90;;;;;;4992104;28;21000;-75
2021/06/04 05:41:14;;;;;;;26.90;23.03;;;18.80;99.90;;;;;;5000113;28;20440;-75
2021/06/04 05:43:44;;;;;;;28.90;25.80;;;18.90;99.90;;;;;;5007710;28;20853;-75
2021/06/04 05:46:13;;;;;;;30.37;25.07;;;19.00;99.90;;;;;;5010932;28;20478;-75
2021/06/04 05:48:41;;;;;;;32.77;29.27;;;19.10;99.90;;;;;;5000293;28;20457;-75
2021/06/04 05:51:16;;;;;;;33.33;29.50;;;19.20;99.90;;;;;;4994403;28;20444;-76
2021/06/04 05:53:43;;;;;;;30.60;27.43;;;19.20;99.90;;;;;;4991996;28;20802;-75
2021/06/04 05:56:13;;;;;;;37.90;32.60;;;19.30;99.90;;;;;;5012812;28;20491;-76
2021/06/04 05:58:42;;;;;;;35.87;31.17;;;19.40;99.90;;;;;;5008962;28;20459;-74
2021/06/04 06:01:13;;;;;;;43.00;36.80;;;19.30;99.90;;;;;;4994045;28;20809;-76
2021/06/04 06:03:40;;;;;;;41.47;37.07;;;19.20;99.90;;;;;;4991885;28;20430;-75
2021/06/04 06:06:08;;;;;;;41.57;37.13;;;19.20;99.90;;;;;;4975889;28;20491;-75
2021/06/04 06:08:35;;;;;;;48.67;39.43;;;19.20;99.90;;;;;;4998589;28;20456;-75
2021/06/04 06:11:03;;;;;;;51.23;42.80;;;19.10;99.90;;;;;;5006296;28;20533;-75
2021/06/04 06:13:30;;;;;;;49.70;40.67;;;19.10;99.90;;;;;;5001723;28;20514;-74
2021/06/04 06:16:01;;;;;;;55.87;40.80;;;19.20;99.90;;;;;;4999443;28;20476;-76
2021/06/04 06:18:32;;;;;;;53.60;41.37;;;19.10;99.90;;;;;;4993032;28;20932;-74
2021/06/04 06:21:01;;;;;;;45.40;39.30;;;19.20;99.90;;;;;;4992566;28;20500;-76
2021/06/04 06:23:35;;;;;;;48.70;42.93;;;19.10;99.90;;;;;;4999117;28;20437;-75
2021/06/04 06:26:18;;;;;;;50.80;41.57;;;19.20;99.90;;;;;;5004189;28;20466;-75
2021/06/04 06:28:48;;;;;;;53.50;43.90;;;19.30;99.90;;;;;;4959035;28;20472;-75
2021/06/04 06:31:23;;;;;;;50.93;44.00;;;19.20;99.90;;;;;;5013924;28;20516;-75
2021/06/04 06:33:52;;;;;;;54.23;42.87;;;19.20;99.90;;;;;;4997689;28;20445;-76
2021/06/04 06:36:26;;;;;;;61.20;45.63;;;19.20;99.90;;;;;;5001191;28;21027;-75
2021/06/04 06:38:58;;;;;;;59.20;47.30;;;19.20;99.90;;;;;;4991944;28;20478;-76
2021/06/04 06:41:27;;;;;;;61.03;47.67;;;19.30;99.90;;;;;;5002311;28;20437;-75
2021/06/04 06:44:01;;;;;;;59.20;49.10;;;19.40;99.90;;;;;;5003180;28;20954;-75
2021/06/04 06:46:28;;;;;;;56.53;47.53;;;19.50;99.90;;;;;;5008438;28;20459;-73
2021/06/04 06:48:55;;;;;;;55.83;47.20;;;19.50;99.90;;;;;;5003527;28;20481;-75
2021/06/04 06:51:23;;;;;;;53.83;45.90;;;19.50;99.90;;;;;;5007302;28;20966;-74
2021/06/04 06:53:56;;;;;;;61.70;48.30;;;19.60;99.90;;;;;;5010637;28;20425;-75
2021/06/04 06:56:23;;;;;;;57.60;47.37;;;19.60;99.90;;;;;;5020192;28;20963;-74
2021/06/04 06:58:55;;;;;;;64.80;51.00;;;19.70;99.90;;;;;;4996770;28;20484;-73
2021/06/04 07:01:22;;;;;;;70.17;53.80;;;19.80;99.90;;;;;;5010675;28;20536;-74
2021/06/04 07:03:53;;;;;;;65.17;51.87;;;19.90;99.90;;;;;;4992586;28;20780;-76
2021/06/04 07:06:26;;;;;;;62.80;51.70;;;19.80;99.90;;;;;;5000134;28;20446;-75
2021/06/04 07:08:54;;;;;;;65.50;51.17;;;19.80;99.90;;;;;;5011526;28;20485;-75
2021/06/04 07:11:23;;;;;;;64.83;53.53;;;19.80;99.90;;;;;;5006603;28;20425;-76
2021/06/04 07:13:53;;;;;;;64.83;49.47;;;19.70;99.90;;;;;;5004926;28;20444;-73
2021/06/04 07:16:21;;;;;;;62.27;48.33;;;19.70;99.90;;;;;;5007666;28;20444;-76
2021/06/04 07:18:51;;;;;;;60.60;49.23;;;19.70;99.90;;;;;;5011429;28;20437;-76
2021/06/04 07:21:20;;;;;;;63.40;52.00;;;19.80;99.90;;;;;;5005344;28;20514;-74
2021/06/04 07:23:49;;;;;;;62.17;51.43;;;19.80;99.90;;;;;;5007452;28;20430;-76
2021/06/04 07:26:20;;;;;;;68.93;51.57;;;19.90;99.90;;;;;;4992937;28;20437;-75
2021/06/04 07:28:48;;;;;;;58.93;49.87;;;19.90;99.90;;;;;;5005965;28;20968;-73
2021/06/04 07:31:19;;;;;;;60.40;50.50;;;20.00;99.90;;;;;;5010959;28;20805;-73
2021/06/04 07:33:51;;;;;;;60.37;50.40;;;19.90;99.90;;;;;;4999689;28;20434;-75
2021/06/04 07:36:25;;;;;;;68.23;54.80;;;19.90;99.90;;;;;;5002562;28;20441;-75
2021/06/04 07:38:54;;;;;;;62.30;50.50;;;19.90;99.90;;;;;;5002758;28;20563;-76
2021/06/04 07:41:23;;;;;;;66.63;55.83;;;19.90;99.90;;;;;;5011733;28;20435;-76
2021/06/04 07:43:51;;;;;;;76.47;59.47;;;20.00;99.90;;;;;;4996855;28;20424;-75
2021/06/04 07:46:21;;;;;;;74.73;58.83;;;20.10;99.90;;;;;;5006473;28;20440;-74
2021/06/04 07:48:49;;;;;;;68.17;56.10;;;20.20;99.90;;;;;;5006010;28;20484;-74
2021/06/04 07:51:27;;;;;;;66.57;51.93;;;20.20;99.90;;;;;;5001925;28;20532;-74
2021/06/04 07:53:54;;;;;;;70.47;56.87;;;20.30;99.90;;;;;;5002715;28;20434;-75
2021/06/04 07:56:23;;;;;;;71.67;53.73;;;20.30;99.90;;;;;;4992073;28;20428;-74
2021/06/04 07:58:50;;;;;;;69.70;54.17;;;20.30;99.90;;;;;;5004061;28;20458;-74
2021/06/04 08:01:18;;;;;;;62.20;53.43;;;20.30;99.90;;;;;;4995894;28;20477;-74
2021/06/04 08:03:46;;;;;;;71.50;55.60;;;20.30;99.90;;;;;;4995546;28;20529;-76
2021/06/04 08:06:21;;;;;;;64.23;52.87;;;20.40;99.90;;;;;;4995924;28;20457;-75
2021/06/04 08:08:52;;;;;;;68.77;54.40;;;20.40;99.90;;;;;;4996567;28;20473;-72
2021/06/04 08:11:33;;;;;;;61.60;50.17;;;20.50;99.90;;;;;;5012578;28;20448;-74
2021/06/04 08:14:07;;;;;;;71.47;54.73;;;20.70;99.90;;;;;;5015669;28;20459;-74
2021/06/04 08:16:40;;;;;;;69.07;55.90;;;20.80;99.90;;;;;;5008813;28;20445;-75
2021/06/04 08:19:10;;;;;;;72.53;55.93;;;20.80;99.90;;;;;;5012424;28;20460;-75
2021/06/04 08:21:41;;;;;;;75.00;56.97;;;21.00;99.90;;;;;;5012609;28;20437;-75
2021/06/04 08:24:12;;;;;;;68.63;53.30;;;21.10;99.90;;;;;;5012491;28;20621;-74
2021/06/04 08:26:40;;;;;;;66.20;53.80;;;21.20;99.90;;;;;;4997465;28;20440;-75
2021/06/04 08:29:08;;;;;;;65.77;56.47;;;21.60;99.90;;;;;;5011023;28;20472;-74
2021/06/04 08:31:38;;;;;;;62.87;53.37;;;21.90;99.90;;;;;;5010627;28;20986;-74
2021/06/04 08:34:06;;;;;;;72.50;57.87;;;22.20;99.90;;;;;;5002290;28;20460;-74
2021/06/04 08:36:37;;;;;;;64.40;55.13;;;22.60;99.90;;;;;;5006839;28;20794;-75
2021/06/04 08:39:15;;;;;;;63.07;54.97;;;;;;;;;;4992784;28;20471;-73
2021/06/04 08:42:13;;;;;;;64.60;56.37;;;23.10;99.90;;;;;;4994961;28;20453;-74
2021/06/04 08:44:46;;;;;;;61.90;55.20;;;23.00;99.90;;;;;;4992752;28;20467;-74
2021/06/04 08:47:21;;;;;;;64.03;52.77;;;23.10;99.90;;;;;;5010135;28;20478;-74
2021/06/04 08:49:51;;;;;;;60.67;53.10;;;23.20;99.90;;;;;;5005306;28;20525;-75
2021/06/04 08:52:33;;;;;;;62.10;54.00;;;23.10;99.90;;;;;;5004924;28;20536;-75
2021/06/04 08:55:30;;;;;;;60.77;53.00;;;23.30;99.90;;;;;;5006183;28;20471;-75
2021/06/04 08:58:43;;;;;;;57.33;49.90;;;23.40;99.90;;;;;;5002408;28;20500;-74
2021/06/04 09:01:16;;;;;;;60.07;53.50;;;23.50;99.90;;;;;;5007148;28;20462;-74
2021/06/04 09:04:18;;;;;;;58.03;51.57;;;23.60;99.90;;;;;;5007049;28;20436;-75
2021/06/04 09:06:58;;;;;;;60.30;52.37;;;23.90;99.90;;;;;;5013195;28;20443;-74
2021/06/04 09:09:34;;;;;;;60.10;52.67;;;23.80;99.90;;;;;;5004217;28;20485;-74
2021/06/04 09:12:15;;;;;;;55.60;49.90;;;23.60;99.90;;;;;;4998091;28;20424;-73
2021/06/04 09:14:43;;;;;;;59.03;52.67;;;23.70;99.90;;;;;;5000661;28;21003;-73
2021/06/04 09:17:16;;;;;;;59.57;52.17;;;23.80;99.90;;;;;;5001508;28;20453;-75
2021/06/04 09:19:57;;;;;;;58.63;52.53;;;23.80;99.90;;;;;;5009379;28;20469;-74
2021/06/04 09:22:27;;;;;;;59.80;53.07;;;24.10;99.90;;;;;;5012007;28;20491;-74
2021/06/04 09:24:55;;;;;;;53.97;48.30;;;24.20;99.90;;;;;;5000755;28;21058;-74
2021/06/04 09:27:49;;;;;;;57.80;51.50;;;24.10;99.90;;;;;;4992533;28;20979;-74
2021/06/04 09:30:34;;;;;;;56.80;51.03;;;24.00;99.90;;;;;;4995218;28;20516;-75
2021/06/04 09:33:10;;;;;;;46.10;41.33;;;24.00;99.90;;;;;;4993961;28;20784;-75
2021/06/04 09:36:00;;;;;;;49.87;42.17;;;23.90;99.90;;;;;;4989946;28;20481;-74
2021/06/04 09:38:35;;;;;;;44.00;39.30;;;24.00;99.90;;;;;;4982462;28;20461;-74
2021/06/04 09:41:35;;;;;;;40.57;36.40;;;24.10;99.90;;;;;;4993141;28;20469;-75
2021/06/04 09:44:14;;;;;;;48.50;43.33;;;24.20;99.90;;;;;;4985593;28;20773;-73
2021/06/04 09:46:53;;;;;;;45.07;40.17;;;24.40;99.90;;;;;;5012546;28;20448;-74
2021/06/04 09:49:43;;;;;;;42.83;38.23;;;24.50;99.90;;;;;;5009241;28;20473;-75
2021/06/04 09:52:31;;;;;;;43.27;38.87;;;24.70;99.90;;;;;;5004401;28;20446;-74
2021/06/04 09:55:14;;;;;;;38.53;34.57;;;;;;;;;;5009883;28;20531;-75
2021/06/04 09:58:15;;;;;;;44.07;39.53;;;25.00;99.90;;;;;;5002518;28;20461;-74
2021/06/04 10:01:10;;;;;;;37.87;33.87;;;25.00;99.90;;;;;;5006861;28;20463;-74
2021/06/04 10:03:43;;;;;;;40.63;36.67;;;24.90;99.90;;;;;;4996297;28;20440;-74
2021/06/04 10:06:13;;;;;;;39.07;34.77;;;24.90;99.90;;;;;;5016440;28;20468;-75
2021/06/04 10:08:56;;;;;;;38.73;34.77;;;24.80;99.90;;;;;;5003774;28;20888;-75
2021/06/04 10:11:26;;;;;;;39.50;35.30;;;24.90;99.90;;;;;;5013213;28;20437;-74
2021/06/04 10:14:34;;;;;;;37.50;33.57;;;25.00;99.90;;;;;;5018406;28;20444;-73
2021/06/04 10:17:26;;;;;;;39.63;35.00;;;25.10;99.90;;;;;;5014714;28;20432;-73
2021/06/04 10:19:53;;;;;;;38.53;34.63;;;25.10;99.90;;;;;;5011241;28;20457;-74
2021/06/04 10:22:37;;;;;;;33.23;29.73;;;25.40;99.90;;;;;;5011312;28;20504;-74
2021/06/04 10:25:08;;;;;;;33.37;30.03;;;25.30;99.90;;;;;;5007926;28;20462;-75
2021/06/04 10:27:43;;;;;;;31.43;28.17;;;25.40;99.90;;;;;;5006778;28;20472;-74
2021/06/04 10:30:14;;;;;;;32.57;29.23;;;25.40;99.90;;;;;;5007094;28;20478;-73
2021/06/04 10:33:04;;;;;;;32.63;29.27;;;25.40;99.90;;;;;;5003615;28;20528;-74
2021/06/04 10:36:03;;;;;;;33.50;29.93;;;25.50;99.90;;;;;;5009733;28;20477;-74
2021/06/04 10:38:53;;;;;;;34.27;30.77;;;25.50;99.90;;;;;;5003144;28;20472;-73
2021/06/04 10:41:29;;;;;;;33.23;30.03;;;25.60;99.90;;;;;;4982040;28;20471;-75
2021/06/04 10:44:15;;;;;;;32.70;29.47;;;25.70;99.90;;;;;;4998633;28;20477;-74
2021/06/04 10:47:01;;;;;;;34.90;30.57;;;26.00;99.90;;;;;;4993544;28;20429;-74
2021/06/04 10:49:55;;;;;;;37.53;33.87;;;26.00;99.90;;;;;;5009753;28;20535;-74
2021/06/04 10:52:44;;;;;;;40.57;36.57;;;26.00;99.90;;;;;;4998561;28;21017;-74
2021/06/04 10:55:30;;;;;;;36.30;33.03;;;26.10;99.90;;;;;;4992020;28;20998;-74
2021/06/04 10:58:34;;;;;;;37.80;34.17;;;26.00;99.90;;;;;;5021218;28;20490;-74
2021/06/04 11:01:05;;;;;;;32.70;29.57;;;25.90;99.90;;;;;;5012943;28;20547;-73
2021/06/04 11:03:47;;;;;;;32.93;29.43;;;25.80;99.90;;;;;;5008396;28;20510;-73
2021/06/04 11:06:20;;;;;;;29.93;26.67;;;25.80;99.90;;;;;;5016804;28;20487;-74
2021/06/04 11:09:05;;;;;;;34.10;30.57;;;25.90;99.90;;;;;;5002679;28;20908;-72
2021/06/04 11:11:53;;;;;;;32.37;29.17;;;25.90;99.90;;;;;;5013365;28;20801;-74
2021/06/04 11:14:33;;;;;;;33.43;30.20;;;25.60;99.90;;;;;;5016329;28;20472;-74
2021/06/04 11:17:34;;;;;;;33.60;29.90;;;25.50;99.90;;;;;;5023206;28;20954;-75
2021/06/04 11:20:13;;;;;;;33.30;29.83;;;25.30;99.90;;;;;;5002338;28;20992;-72
2021/06/04 11:23:04;;;;;;;30.33;27.33;;;25.10;99.90;;;;;;5037006;28;20424;-73
2021/06/04 11:25:53;;;;;;;25.90;23.40;;;24.90;99.90;;;;;;5026156;28;20547;-75
2021/06/04 11:28:29;;;;;;;28.07;25.63;;;24.90;99.90;;;;;;5021989;28;20477;-73
2021/06/04 11:31:00;;;;;;;27.67;25.07;;;24.80;99.90;;;;;;4999690;28;21058;-74
2021/06/04 11:33:33;;;;;;;26.80;24.43;;;24.80;99.90;;;;;;5014794;28;20533;-71
2021/06/04 11:36:12;;;;;;;29.27;26.63;;;24.60;99.90;;;;;;5002428;28;20493;-72
2021/06/04 11:38:50;;;;;;;31.43;28.43;;;24.50;99.90;;;;;;5019019;28;20973;-74
2021/06/04 11:41:44;;;;;;;31.50;27.27;;;24.40;99.90;;;;;;5003246;28;20479;-74
2021/06/04 11:44:27;;;;;;;29.13;26.53;;;24.40;99.90;;;;;;5020432;28;20456;-74
2021/06/04 11:47:12;;;;;;;28.13;25.63;;;24.30;99.90;;;;;;5031857;28;20913;-73
2021/06/04 11:49:51;;;;;;;32.73;29.57;;;24.30;99.90;;;;;;5027349;28;21077;-73
2021/06/04 11:52:40;;;;;;;33.07;29.67;;;24.20;99.90;;;;;;5016528;28;20962;-73
2021/06/04 11:55:25;;;;;;;32.23;29.07;;;24.10;99.90;;;;;;5004074;28;20560;-73
2021/06/04 11:57:55;;;;;;;32.87;29.73;;;23.90;99.90;;;;;;5022483;28;20475;-74
2021/06/04 12:00:26;;;;;;;34.10;30.80;;;24.00;99.90;;;;;;5008945;28;20638;-74
2021/06/04 12:03:07;;;;;;;32.03;28.93;;;23.90;99.90;;;;;;5014522;28;20868;-73
2021/06/04 12:05:42;;;;;;;33.47;30.30;;;23.90;99.90;;;;;;5011303;28;20526;-74
2021/06/04 12:08:11;;;;;;;35.20;31.90;;;23.80;99.90;;;;;;5021686;28;22163;-73
2021/06/04 12:10:53;;;;;;;35.37;31.60;;;23.70;99.90;;;;;;5014669;28;20467;-74
2021/06/04 12:13:44;;;;;;;36.67;32.97;;;23.80;99.90;;;;;;5026770;28;20490;-73
2021/06/04 12:16:27;;;;;;;37.00;33.50;;;23.80;99.90;;;;;;5028381;28;20465;-74
2021/06/04 12:19:31;;;;;;;39.27;35.77;;;23.70;99.90;;;;;;5016312;28;20512;-74
2021/06/04 12:22:07;;;;;;;39.87;35.97;;;23.70;99.90;;;;;;5011976;28;20448;-73
2021/06/04 12:24:36;;;;;;;36.13;32.77;;;23.60;99.90;;;;;;5032841;28;21034;-74
2021/06/04 12:27:11;;;;;;;40.07;36.47;;;23.60;99.90;;;;;;5017894;28;20464;-73
2021/06/04 12:29:52;;;;;;;37.23;33.70;;;23.50;99.90;;;;;;5014840;28;20481;-73
2021/06/04 12:32:48;;;;;;;36.57;32.83;;;23.50;99.90;;;;;;5016794;28;20980;-75
2021/06/04 12:35:39;;;;;;;36.20;32.60;;;23.40;99.90;;;;;;5002720;28;20473;-74
2021/06/04 12:38:34;;;;;;;36.33;32.90;;;23.40;99.90;;;;;;5013153;28;20986;-73
2021/06/04 12:41:06;;;;;;;36.17;32.53;;;23.50;99.90;;;;;;5014808;28;21233;-72
2021/06/04 12:43:34;;;;;;;38.40;34.67;;;23.50;99.90;;;;;;5027555;28;20434;-74
2021/06/04 12:46:04;;;;;;;37.73;33.20;;;23.60;99.90;;;;;;4994241;28;20474;-73
2021/06/04 12:48:35;;;;;;;40.60;36.60;;;23.60;99.90;;;;;;5021409;28;20470;-73
2021/06/04 12:51:19;;;;;;;39.30;35.43;;;23.60;99.90;;;;;;5008326;28;20470;-73
2021/06/04 12:54:01;;;;;;;42.10;38.00;;;23.70;99.90;;;;;;5020815;28;20425;-73
2021/06/04 12:56:28;;;;;;;36.93;33.50;;;23.80;99.90;;;;;;5013672;28;20417;-74
2021/06/04 12:59:15;;;;;;;38.80;35.20;;;23.80;99.90;;;;;;5013517;28;20464;-74
2021/06/04 13:02:08;;;;;;;39.17;35.20;;;24.00;99.90;;;;;;5012873;28;20440;-74
2021/06/04 13:04:48;;;;;;;38.87;35.37;;;24.10;99.90;;;;;;5018381;28;20541;-73
2021/06/04 13:07:24;;;;;;;40.70;36.80;;;24.30;99.90;;;;;;5012730;28;20530;-74
2021/06/04 13:10:00;;;;;;;40.40;36.00;;;24.40;99.90;;;;;;5012368;28;20478;-75
2021/06/04 13:12:31;;;;;;;36.47;33.17;;;24.50;99.90;;;;;;5014688;28;20788;-73